Time;durP1;ratioP1;P1;durP2;ratioP2;P2;SDS_P1;SDS_P2;PMS_P1;PMS_P2;Temp;Humidity;BMP_temperature;BMP_pressure;BME280_temperature;BME280_humidity;BME280_pressure;Samples;Min_cycle;Max_cycle;Signal;HPM_P1;HPM_P2
2021/03/24 00:00:55;;;;;;;31.58;21.33;;;3.10;99.90;;;;;;5034138;28;20208;-42
2021/03/24 00:03:22;;;;;;;23.63;18.38;;;3.10;99.90;;;;;;5033839;28;20300;-42
2021/03/24 00:05:51;;;;;;;22.60;17.90;;;3.10;99.90;;;;;;5033858;28;20307;-42
2021/03/24 00:08:20;;;;;;;24.42;17.17;;;3.10;99.90;;;;;;5033936;28;20240;-42
2021/03/24 00:10:47;;;;;;;25.30;19.77;;;3.10;99.90;;;;;;5033541;28;20312;-42
2021/03/24 00:13:14;;;;;;;26.90;19.48;;;3.10;99.90;;;;;;5033813;28;20664;-43
2021/03/24 00:15:43;;;;;;;25.30;18.80;;;3.10;99.90;;;;;;5033631;28;20578;-42
2021/03/24 00:18:10;;;;;;;26.17;19.35;;;3.00;99.90;;;;;;5033690;28;20312;-42
2021/03/24 00:20:40;;;;;;;27.42;18.77;;;3.00;99.90;;;;;;5033693;28;20232;-42
2021/03/24 00:23:08;;;;;;;30.10;20.92;;;3.00;99.90;;;;;;5033536;28;20307;-42
2021/03/24 00:25:36;;;;;;;30.30;19.80;;;3.00;99.90;;;;;;5033505;28;20229;-42
2021/03/24 00:28:04;;;;;;;27.25;18.90;;;3.00;99.90;;;;;;5033583;28;20215;-41
2021/03/24 00:30:35;;;;;;;29.95;21.42;;;3.00;99.90;;;;;;5033206;28;20719;-40
2021/03/24 00:33:05;;;;;;;23.20;17.77;;;3.00;99.90;;;;;;5033127;28;20244;-41
2021/03/24 00:35:33;;;;;;;26.38;19.33;;;3.00;99.90;;;;;;5033290;28;20216;-41
2021/03/24 00:38:00;;;;;;;24.85;19.05;;;3.00;99.90;;;;;;5033421;28;20237;-41
2021/03/24 00:40:29;;;;;;;25.85;19.40;;;2.90;99.90;;;;;;5033110;28;20674;-41
2021/03/24 00:42:57;;;;;;;24.70;18.35;;;2.90;99.90;;;;;;5033358;28;20341;-42
2021/03/24 00:45:24;;;;;;;23.75;18.40;;;3.00;99.90;;;;;;5033108;28;20550;-42
2021/03/24 00:47:52;;;;;;;22.08;17.73;;;3.00;99.90;;;;;;5033618;28;20663;-41
2021/03/24 00:50:23;;;;;;;29.05;18.60;;;3.00;99.90;;;;;;5032625;28;20228;-42
2021/03/24 00:52:50;;;;;;;25.13;17.90;;;3.00;99.90;;;;;;5033267;28;20519;-41
2021/03/24 00:55:17;;;;;;;22.98;18.08;;;3.00;99.90;;;;;;5044968;28;20208;-41
2021/03/24 00:57:44;;;;;;;22.17;17.35;;;3.00;99.90;;;;;;5052759;28;20750;-40
2021/03/24 01:00:15;;;;;;;23.13;17.77;;;2.90;99.90;;;;;;5052639;28;20250;-40
2021/03/24 01:02:43;;;;;;;24.33;18.33;;;2.80;99.90;;;;;;5052577;28;20269;-41
2021/03/24 01:05:13;;;;;;;21.40;17.67;;;2.70;99.90;;;;;;5052650;28;20681;-43
2021/03/24 01:07:42;;;;;;;22.70;17.80;;;2.70;99.90;;;;;;5052560;28;20299;-41
2021/03/24 01:10:11;;;;;;;25.88;18.27;;;2.70;99.90;;;;;;5052532;28;20705;-46
2021/03/24 01:12:38;;;;;;;21.40;16.05;;;2.70;99.90;;;;;;5052672;28;20208;-41
2021/03/24 01:15:06;;;;;;;22.63;16.83;;;2.70;99.90;;;;;;5052345;28;20208;-41
2021/03/24 01:17:33;;;;;;;23.20;16.05;;;2.70;99.90;;;;;;5052449;28;20208;-41
2021/03/24 01:20:03;;;;;;;27.42;16.00;;;2.70;99.90;;;;;;5052360;28;20238;-41
2021/03/24 01:22:34;;;;;;;23.75;16.13;;;2.60;99.90;;;;;;5052376;28;20663;-42
2021/03/24 01:25:03;;;;;;;24.58;17.38;;;2.50;99.90;;;;;;5052351;28;20667;-41
2021/03/24 01:27:30;;;;;;;21.35;15.98;;;2.40;99.90;;;;;;5052278;28;20211;-41
2021/03/24 01:29:57;;;;;;;21.13;15.10;;;2.40;99.90;;;;;;5052126;28;20208;-41
2021/03/24 01:32:27;;;;;;;23.27;16.38;;;2.40;99.90;;;;;;5042782;28;20318;-42
2021/03/24 01:34:54;;;;;;;24.67;17.02;;;2.40;99.90;;;;;;5032214;28;20673;-40
2021/03/24 01:37:21;;;;;;;23.55;16.52;;;2.40;99.90;;;;;;5032283;28;20303;-42
2021/03/24 01:39:48;;;;;;;20.73;16.50;;;2.30;99.90;;;;;;5032289;28;20215;-42
2021/03/24 01:42:16;;;;;;;20.90;15.82;;;2.40;99.90;;;;;;5032102;28;20564;-42
2021/03/24 01:45:25;;;;;;;20.42;15.32;;;2.30;99.90;;;;;;5032365;28;20208;-41
2021/03/24 01:47:54;;;;;;;20.08;14.60;;;2.30;99.90;;;;;;4962412;28;20266;-41
2021/03/24 01:50:27;;;;;;;16.20;14.48;;;2.30;99.90;;;;;;5031792;28;20318;-42
2021/03/24 01:52:56;;;;;;;20.30;14.07;;;2.20;99.90;;;;;;5031519;28;20222;-42
2021/03/24 01:55:24;;;;;;;23.33;15.80;;;2.20;99.90;;;;;;5018746;28;20221;-42
2021/03/24 01:57:52;;;;;;;20.35;15.20;;;2.20;99.90;;;;;;5011968;28;20209;-42
2021/03/24 02:00:24;;;;;;;19.27;15.52;;;2.20;99.90;;;;;;5012046;28;20219;-41
2021/03/24 02:02:51;;;;;;;21.55;15.48;;;2.10;99.90;;;;;;5011741;28;20703;-41
2021/03/24 02:05:18;;;;;;;16.25;12.95;;;2.10;99.90;;;;;;5011877;28;20235;-40
2021/03/24 02:07:50;;;;;;;18.33;14.18;;;2.10;99.90;;;;;;5012247;28;20267;-40
2021/03/24 02:10:25;;;;;;;22.42;15.55;;;2.10;99.90;;;;;;5012092;28;20209;-41
2021/03/24 02:12:59;;;;;;;22.98;15.23;;;2.10;99.90;;;;;;5011803;28;20667;-40
2021/03/24 02:15:33;;;;;;;18.17;14.70;;;2.10;99.90;;;;;;5011953;28;20217;-43
2021/03/24 02:18:02;;;;;;;19.42;14.30;;;2.10;99.90;;;;;;5011977;28;20579;-40
2021/03/24 02:20:34;;;;;;;18.40;14.35;;;2.10;99.90;;;;;;5011975;28;20210;-40
2021/03/24 02:23:14;;;;;;;20.70;15.13;;;2.10;99.90;;;;;;5012008;28;20324;-42
2021/03/24 02:25:48;;;;;;;18.20;14.00;;;2.00;99.90;;;;;;5011749;28;20255;-41
2021/03/24 02:28:17;;;;;;;19.65;15.27;;;2.00;99.90;;;;;;5011755;28;20209;-42
2021/03/24 02:30:47;;;;;;;23.40;15.82;;;2.00;99.90;;;;;;5011641;28;20320;-41
2021/03/24 02:33:18;;;;;;;18.67;14.45;;;1.90;99.90;;;;;;5027237;28;20749;-42
2021/03/24 02:35:49;;;;;;;20.48;14.95;;;1.90;99.90;;;;;;5031515;28;20304;-42
2021/03/24 02:38:18;;;;;;;19.08;14.43;;;1.90;99.90;;;;;;5031520;28;20675;-40
2021/03/24 02:40:47;;;;;;;20.20;14.80;;;1.90;99.90;;;;;;5031392;28;20236;-40
2021/03/24 02:43:16;;;;;;;19.98;14.65;;;1.90;99.90;;;;;;5031523;28;20216;-41
2021/03/24 02:45:45;;;;;;;21.08;15.50;;;1.90;99.90;;;;;;5031328;28;20278;-41
2021/03/24 02:48:16;;;;;;;19.63;14.55;;;1.90;99.90;;;;;;5031334;28;20212;-41
2021/03/24 02:50:54;;;;;;;19.35;15.02;;;1.90;99.90;;;;;;5031216;28;20259;-41
2021/03/24 02:53:22;;;;;;;22.23;14.25;;;1.90;99.90;;;;;;5031512;28;20223;-41
2021/03/24 02:55:50;;;;;;;19.52;15.23;;;1.90;99.90;;;;;;5031433;28;20299;-41
2021/03/24 02:58:18;;;;;;;20.42;15.50;;;1.90;99.90;;;;;;5031421;28;20640;-41
2021/03/24 03:00:47;;;;;;;19.55;13.98;;;1.90;99.90;;;;;;5031530;28;20662;-41
2021/03/24 03:03:18;;;;;;;19.15;13.93;;;1.90;99.90;;;;;;5031127;28;20643;-41
2021/03/24 03:05:47;;;;;;;15.45;13.15;;;1.90;99.90;;;;;;5030963;28;20255;-41
2021/03/24 03:08:18;;;;;;;19.13;14.82;;;1.90;99.90;;;;;;5031343;28;20223;-40
2021/03/24 03:10:57;;;;;;;19.02;14.93;;;1.90;99.90;;;;;;5031265;28;20303;-40
2021/03/24 03:13:31;;;;;;;19.55;13.75;;;1.90;99.90;;;;;;5033829;28;20278;-40
2021/03/24 03:16:04;;;;;;;19.00;13.90;;;1.80;99.90;;;;;;5034704;28;20208;-40
2021/03/24 03:18:38;;;;;;;16.20;14.07;;;1.80;99.90;;;;;;5034947;28;20623;-41
2021/03/24 03:21:10;;;;;;;20.77;15.30;;;1.80;99.90;;;;;;5034879;28;20216;-40
2021/03/24 03:23:37;;;;;;;20.35;13.60;;;1.80;99.90;;;;;;5034517;28;20220;-40
2021/03/24 03:26:09;;;;;;;18.33;13.57;;;1.80;99.90;;;;;;5034992;28;20251;-40
2021/03/24 03:28:40;;;;;;;22.45;14.10;;;1.70;99.90;;;;;;5034586;28;20239;-40
2021/03/24 03:31:11;;;;;;;19.67;15.10;;;1.70;99.90;;;;;;5034360;28;20321;-39
2021/03/24 03:33:42;;;;;;;18.05;14.82;;;1.70;99.90;;;;;;5034399;28;20267;-40
2021/03/24 03:36:11;;;;;;;19.88;13.55;;;1.70;99.90;;;;;;5034584;28;20217;-40
2021/03/24 03:38:39;;;;;;;20.08;14.23;;;1.80;99.90;;;;;;5034504;28;20291;-40
2021/03/24 03:41:10;;;;;;;20.27;14.15;;;1.80;99.90;;;;;;5034449;28;20282;-40
2021/03/24 03:43:41;;;;;;;19.27;13.48;;;1.80;99.90;;;;;;5034352;28;20659;-40
2021/03/24 03:46:12;;;;;;;20.90;14.40;;;1.80;99.90;;;;;;5034591;28;20292;-41
2021/03/24 03:48:39;;;;;;;23.00;15.40;;;1.70;99.90;;;;;;5034368;28;20215;-41
2021/03/24 03:51:12;;;;;;;17.05;13.35;;;1.70;99.90;;;;;;5034053;28;20270;-42
2021/03/24 03:53:49;;;;;;;22.60;14.98;;;1.70;99.90;;;;;;5034232;28;20299;-41
2021/03/24 03:56:19;;;;;;;24.42;14.90;;;1.70;99.90;;;;;;5034369;28;20235;-40
2021/03/24 03:58:53;;;;;;;17.25;13.13;;;1.70;99.90;;;;;;5034206;28;20356;-40
2021/03/24 04:01:23;;;;;;;18.80;14.38;;;1.70;99.90;;;;;;5034103;28;20229;-41
2021/03/24 04:03:55;;;;;;;18.20;14.43;;;1.70;99.90;;;;;;5033963;28;20300;-43
2021/03/24 04:06:25;;;;;;;18.35;14.40;;;1.70;99.90;;;;;;5034142;28;20209;-42
2021/03/24 04:08:54;;;;;;;19.73;14.27;;;1.70;99.90;;;;;;5034097;28;20296;-42
2021/03/24 04:11:23;;;;;;;17.77;13.70;;;1.70;99.90;;;;;;5033793;28;20711;-42
2021/03/24 04:13:55;;;;;;;22.70;14.60;;;1.70;99.90;;;;;;5033828;28;20208;-41
2021/03/24 04:16:24;;;;;;;18.10;14.27;;;1.70;99.90;;;;;;5033916;28;20287;-41
2021/03/24 04:18:56;;;;;;;19.10;13.70;;;1.70;99.90;;;;;;5033658;28;20303;-40
2021/03/24 04:21:25;;;;;;;18.73;13.93;;;1.70;99.90;;;;;;5033881;28;20208;-41
2021/03/24 04:23:59;;;;;;;19.08;14.10;;;1.60;99.90;;;;;;5033223;28;20237;-41
2021/03/24 04:26:31;;;;;;;20.10;14.50;;;1.60;99.90;;;;;;5033567;28;20731;-41
2021/03/24 04:29:12;;;;;;;23.42;14.63;;;1.50;99.90;;;;;;5033436;28;20686;-41
2021/03/24 04:31:46;;;;;;;19.95;13.75;;;1.50;99.90;;;;;;5033263;28;20798;-40
2021/03/24 04:34:14;;;;;;;17.48;14.57;;;1.50;99.90;;;;;;5033430;28;20212;-40
2021/03/24 04:36:46;;;;;;;18.52;14.27;;;1.60;99.90;;;;;;5033484;28;20224;-41
2021/03/24 04:39:21;;;;;;;19.85;15.18;;;1.60;99.90;;;;;;5033338;28;20368;-40
2021/03/24 04:41:50;;;;;;;18.88;15.02;;;1.60;99.90;;;;;;5033188;28;20291;-41
2021/03/24 04:44:23;;;;;;;22.75;15.07;;;1.60;99.90;;;;;;5033446;28;20236;-41
2021/03/24 04:46:53;;;;;;;20.65;15.43;;;1.60;99.90;;;;;;5033259;28;20244;-42
2021/03/24 04:49:22;;;;;;;22.23;14.75;;;1.60;99.90;;;;;;5033147;28;20687;-40
2021/03/24 04:51:51;;;;;;;18.65;14.13;;;1.60;99.90;;;;;;5032766;28;20235;-43
2021/03/24 04:54:25;;;;;;;19.85;15.13;;;1.50;99.90;;;;;;5033152;28;20232;-41
2021/03/24 04:56:55;;;;;;;21.95;15.77;;;1.60;99.90;;;;;;5032969;28;20294;-41
2021/03/24 04:59:29;;;;;;;20.27;14.73;;;1.50;99.90;;;;;;5033162;28;20251;-41
2021/03/24 05:02:00;;;;;;;20.73;14.80;;;1.40;99.90;;;;;;5032640;28;20209;-41
2021/03/24 05:04:32;;;;;;;22.67;14.68;;;1.30;99.90;;;;;;5032411;28;20625;-41
2021/03/24 05:07:05;;;;;;;18.48;13.77;;;1.40;99.90;;;;;;5032729;28;20237;-42
2021/03/24 05:09:32;;;;;;;23.98;15.25;;;1.50;99.90;;;;;;5032720;28;20324;-42
2021/03/24 05:12:08;;;;;;;19.90;15.18;;;1.50;99.90;;;;;;5032505;28;20319;-41
2021/03/24 05:14:42;;;;;;;20.70;15.80;;;1.60;99.90;;;;;;5033101;28;20220;-41
2021/03/24 05:17:16;;;;;;;21.38;15.57;;;1.70;99.90;;;;;;5032412;28;20266;-41
2021/03/24 05:19:46;;;;;;;21.20;16.05;;;1.60;99.90;;;;;;5032447;28;20325;-41
2021/03/24 05:22:23;;;;;;;19.42;15.15;;;1.50;99.90;;;;;;5032493;28;20282;-41
2021/03/24 05:24:55;;;;;;;23.92;15.43;;;1.50;99.90;;;;;;5032667;28;20208;-40
2021/03/24 05:27:30;;;;;;;20.73;15.63;;;1.50;99.90;;;;;;5032239;28;20219;-40
2021/03/24 05:30:07;;;;;;;24.30;15.63;;;1.60;99.90;;;;;;5032423;28;20213;-40
2021/03/24 05:32:40;;;;;;;25.50;17.83;;;1.70;99.90;;;;;;5031951;28;20243;-41
2021/03/24 05:35:24;;;;;;;21.13;15.32;;;1.80;99.90;;;;;;5031963;28;20213;-41
2021/03/24 05:37:51;;;;;;;22.70;16.38;;;1.80;99.90;;;;;;5031784;28;20215;-40
2021/03/24 05:40:43;;;;;;;23.40;17.08;;;1.80;99.90;;;;;;5032088;28;20648;-41
2021/03/24 05:43:31;;;;;;;21.70;14.88;;;1.80;99.90;;;;;;5032129;28;20217;-41
2021/03/24 05:46:08;;;;;;;23.38;15.60;;;1.70;99.90;;;;;;5011451;28;20310;-42
2021/03/24 05:49:04;;;;;;;22.00;16.20;;;1.80;99.90;;;;;;5032388;28;20231;-41
2021/03/24 05:51:43;;;;;;;18.35;14.45;;;1.90;99.90;;;;;;5015958;28;20247;-42
2021/03/24 05:54:54;;;;;;;21.95;15.77;;;2.00;99.90;;;;;;5032127;28;20204;-41
2021/03/24 05:57:40;;;;;;;19.00;15.45;;;2.10;99.90;;;;;;4932532;29;20303;-41
2021/03/24 06:00:21;;;;;;;17.30;14.30;;;2.20;99.90;;;;;;5031039;28;20219;-42
2021/03/24 06:02:59;;;;;;;26.00;16.23;;;2.30;99.90;;;;;;5031667;28;20295;-41
2021/03/24 06:05:32;;;;;;;19.52;15.40;;;2.30;99.90;;;;;;5031991;28;20208;-41
2021/03/24 06:08:34;;;;;;;23.08;16.95;;;2.40;99.90;;;;;;5031898;28;20566;-41
2021/03/24 06:11:28;;;;;;;24.08;16.88;;;2.50;99.90;;;;;;5031801;28;20247;-41
2021/03/24 06:14:44;;;;;;;24.45;16.50;;;2.60;99.90;;;;;;5031743;28;20236;-41
2021/03/24 06:17:34;;;;;;;19.83;14.65;;;2.60;99.90;;;;;;4932348;29;20327;-42
2021/03/24 06:20:14;;;;;;;25.02;16.65;;;2.70;99.90;;;;;;4901923;29;20255;-42
2021/03/24 06:22:56;;;;;;;22.30;16.05;;;2.70;99.90;;;;;;5012512;28;20295;-41
2021/03/24 06:25:34;;;;;;;24.48;16.63;;;2.80;99.90;;;;;;5031577;28;20647;-41
2021/03/24 06:28:15;;;;;;;22.92;17.33;;;2.90;99.90;;;;;;5031682;28;20291;-41
2021/03/24 06:30:54;;;;;;;26.05;18.38;;;3.00;99.90;;;;;;5032618;28;20678;-41
2021/03/24 06:33:45;;;;;;;22.13;15.80;;;3.10;99.90;;;;;;5031420;28;20275;-41
2021/03/24 06:36:31;;;;;;;24.30;17.70;;;3.20;99.90;;;;;;5027519;28;20609;-42
2021/03/24 06:39:31;;;;;;;20.48;16.98;;;3.30;99.90;;;;;;5031433;28;20216;-41
2021/03/24 06:42:22;;;;;;;24.63;17.88;;;3.50;99.90;;;;;;5031817;28;20236;-42
2021/03/24 06:45:11;;;;;;;24.58;17.25;;;3.60;99.90;;;;;;5031051;28;20205;-41
2021/03/24 06:47:47;;;;;;;20.38;15.55;;;3.80;99.90;;;;;;5032956;28;20242;-41
2021/03/24 06:50:39;;;;;;;24.33;16.60;;;3.90;99.90;;;;;;5035057;28;20208;-41
2021/03/24 06:53:40;;;;;;;21.75;16.15;;;4.00;99.90;;;;;;5031365;28;20742;-41
2021/03/24 06:56:33;;;;;;;25.75;18.05;;;4.10;99.90;;;;;;5034861;28;20286;-41
2021/03/24 06:59:44;;;;;;;21.27;15.68;;;4.20;99.90;;;;;;4985728;28;20617;-42
2021/03/24 07:02:44;;;;;;;20.77;15.02;;;4.20;99.90;;;;;;5034919;28;20773;-41
2021/03/24 07:05:40;;;;;;;18.90;14.43;;;4.30;99.90;;;;;;5027499;28;20706;-41
2021/03/24 07:08:36;;;;;;;18.50;14.10;;;4.30;99.90;;;;;;5034821;28;20267;-41
2021/03/24 07:11:17;;;;;;;21.15;16.08;;;4.40;99.90;;;;;;5034643;28;20213;-40
2021/03/24 07:14:10;;;;;;;20.60;15.02;;;4.40;99.90;;;;;;5034405;28;20665;-41
2021/03/24 07:17:07;;;;;;;20.67;14.52;;;4.50;99.90;;;;;;5034685;28;20217;-41
2021/03/24 07:20:13;;;;;;;21.85;14.52;;;4.70;99.90;;;;;;5026594;28;20212;-40
2021/03/24 07:22:54;;;;;;;21.58;14.45;;;4.90;99.90;;;;;;5034567;28;20295;-40
2021/03/24 07:25:40;;;;;;;18.75;14.43;;;5.10;99.90;;;;;;5034351;28;20216;-47
2021/03/24 07:28:33;;;;;;;17.77;13.77;;;5.10;99.90;;;;;;5034243;28;20236;-46
2021/03/24 07:31:29;;;;;;;22.38;15.73;;;5.10;99.90;;;;;;5034477;28;20239;-46
2021/03/24 07:34:04;;;;;;;22.52;14.40;;;5.20;99.90;;;;;;5014515;28;20295;-46
2021/03/24 07:36:55;;;;;;;21.65;15.05;;;5.30;99.90;;;;;;5015376;28;20213;-43
2021/03/24 07:39:35;;;;;;;17.52;14.35;;;5.50;99.90;;;;;;5014548;28;20259;-47
2021/03/24 07:42:31;;;;;;;20.15;13.60;;;5.70;99.90;;;;;;5014729;28;20234;-42
2021/03/24 07:45:30;;;;;;;19.33;15.07;;;5.90;99.90;;;;;;5014068;28;20237;-42
2021/03/24 07:48:16;;;;;;;17.58;14.23;;;6.10;99.90;;;;;;4996645;28;20237;-43
2021/03/24 07:50:51;;;;;;;20.33;15.35;;;6.10;99.90;;;;;;5014223;28;20224;-46
2021/03/24 07:53:30;;;;;;;20.45;14.23;;;6.20;99.90;;;;;;5014051;28;20264;-43
2021/03/24 07:56:10;;;;;;;20.92;14.70;;;6.20;99.90;;;;;;5014129;28;20301;-43
2021/03/24 07:59:06;;;;;;;22.25;14.30;;;6.20;99.90;;;;;;5013393;28;20209;-42
2021/03/24 08:01:41;;;;;;;24.38;13.70;;;6.30;99.90;;;;;;5014017;28;20206;-44
2021/03/24 08:04:30;;;;;;;19.30;14.88;;;6.40;99.90;;;;;;5014062;28;20312;-45
2021/03/24 08:07:10;;;;;;;22.95;14.93;;;6.50;99.90;;;;;;5013896;28;20637;-43
2021/03/24 08:09:47;;;;;;;21.63;14.43;;;6.50;99.90;;;;;;5013652;28;20233;-43
2021/03/24 08:12:31;;;;;;;20.95;14.02;;;6.60;99.90;;;;;;5013404;28;20691;-43
2021/03/24 08:15:20;;;;;;;18.27;14.07;;;6.80;99.90;;;;;;5013498;28;20205;-42
2021/03/24 08:17:58;;;;;;;16.20;12.27;;;6.90;99.50;;;;;;5013759;28;20241;-42
2021/03/24 08:20:32;;;;;;;16.90;13.25;;;7.10;99.40;;;;;;5013518;28;20731;-42
2021/03/24 08:23:33;;;;;;;19.83;14.35;;;7.30;99.10;;;;;;5013791;28;20291;-42
2021/03/24 08:26:10;;;;;;;19.98;13.32;;;7.50;98.80;;;;;;4996202;28;20305;-47
2021/03/24 08:28:45;;;;;;;17.77;13.68;;;7.60;98.70;;;;;;5013353;28;20304;-45
2021/03/24 08:31:56;;;;;;;19.50;13.60;;;7.70;98.50;;;;;;5013326;28;20304;-44
2021/03/24 08:34:57;;;;;;;18.75;13.77;;;7.90;98.20;;;;;;5013169;28;20233;-48
2021/03/24 08:37:57;;;;;;;17.05;13.45;;;8.00;97.90;;;;;;4965715;28;20354;-44
2021/03/24 08:40:51;;;;;;;18.42;13.25;;;8.10;97.70;;;;;;5013218;28;20248;-44
2021/03/24 08:43:43;;;;;;;19.10;13.82;;;8.20;97.60;;;;;;5013062;28;20241;-43
2021/03/24 08:46:17;;;;;;;44.90;14.70;;;8.30;97.40;;;;;;5013124;28;20205;-43
2021/03/24 08:48:48;;;;;;;20.40;12.50;;;8.40;97.30;;;;;;5012906;28;20213;-45
2021/03/24 08:51:22;;;;;;;21.58;13.48;;;8.50;97.10;;;;;;5012732;28;20214;-43
2021/03/24 08:54:09;;;;;;;18.27;12.60;;;8.60;96.90;;;;;;5012892;28;20194;-40
2021/03/24 08:56:46;;;;;;;17.80;13.90;;;8.70;96.60;;;;;;5012701;28;20248;-41
2021/03/24 08:59:25;;;;;;;19.67;14.18;;;8.70;96.40;;;;;;5012554;28;20316;-42
2021/03/24 09:02:17;;;;;;;16.23;12.20;;;8.80;96.20;;;;;;5012357;28;20231;-45
2021/03/24 09:05:11;;;;;;;22.95;12.73;;;8.90;95.80;;;;;;5012676;28;20209;-43
2021/03/24 09:07:50;;;;;;;19.58;13.63;;;9.00;95.50;;;;;;5012396;28;20297;-42
2021/03/24 09:10:38;;;;;;;16.35;13.38;;;9.10;95.30;;;;;;5012426;28;20213;-42
2021/03/24 09:13:12;;;;;;;26.38;13.15;;;9.10;95.00;;;;;;5012445;28;20255;-43
2021/03/24 09:15:49;;;;;;;14.98;12.55;;;9.20;95.10;;;;;;5012407;28;20209;-41
2021/03/24 09:18:21;;;;;;;15.00;11.68;;;9.20;94.80;;;;;;5012135;28;20368;-41
2021/03/24 09:21:05;;;;;;;27.08;18.25;;;9.30;94.60;;;;;;5012449;28;20668;-41
2021/03/24 09:23:58;;;;;;;18.45;15.23;;;9.40;94.40;;;;;;5012164;28;20384;-43
2021/03/24 09:27:22;;;;;;;18.60;12.60;;;9.50;94.20;;;;;;5011977;28;20292;-41
2021/03/24 09:30:35;;;;;;;18.05;12.63;;;9.50;94.00;;;;;;5012253;28;20227;-45
2021/03/24 09:33:35;;;;;;;15.95;12.40;;;9.50;94.10;;;;;;5025877;28;20313;-45
2021/03/24 09:36:45;;;;;;;15.35;12.27;;;9.60;94.10;;;;;;5032044;28;20259;-43
2021/03/24 09:39:22;;;;;;;19.65;13.70;;;9.70;93.80;;;;;;5031533;28;20223;-43
2021/03/24 09:41:54;;;;;;;17.42;13.27;;;9.70;93.80;;;;;;5032003;28;20342;-46
2021/03/24 09:44:29;;;;;;;22.02;15.15;;;9.60;93.80;;;;;;5031849;28;20306;-43
2021/03/24 09:46:57;;;;;;;18.05;14.45;;;9.60;93.90;;;;;;5031540;28;20212;-43
2021/03/24 09:49:31;;;;;;;19.63;15.15;;;9.70;94.00;;;;;;5031596;28;20209;-43
2021/03/24 09:52:31;;;;;;;15.63;13.13;;;9.80;94.00;;;;;;5031359;28;20445;-40
2021/03/24 09:55:16;;;;;;;19.05;13.27;;;10.00;93.40;;;;;;4977920;28;20208;-41
2021/03/24 09:58:11;;;;;;;17.88;12.93;;;10.10;93.40;;;;;;5030366;28;20445;-41
2021/03/24 10:00:49;;;;;;;18.58;13.77;;;10.20;93.30;;;;;;4990374;28;20736;-41
2021/03/24 10:03:26;;;;;;;18.58;14.38;;;10.40;93.00;;;;;;5031566;28;20390;-42
2021/03/24 10:05:58;;;;;;;26.52;14.57;;;10.50;92.30;;;;;;5031183;28;20589;-44
2021/03/24 10:08:30;;;;;;;17.38;13.52;;;10.40;92.40;;;;;;5032104;28;20348;-43
2021/03/24 10:11:02;;;;;;;19.70;14.15;;;10.30;92.50;;;;;;5031339;28;20296;-43
2021/03/24 10:13:34;;;;;;;22.08;14.20;;;10.40;92.60;;;;;;5031281;28;20593;-43
2021/03/24 10:16:10;;;;;;;17.55;13.07;;;10.50;92.40;;;;;;5031080;28;20274;-43
2021/03/24 10:18:44;;;;;;;16.38;12.68;;;10.70;92.20;;;;;;5031787;28;20675;-43
2021/03/24 10:21:16;;;;;;;20.27;15.95;;;10.70;91.60;;;;;;5031080;28;20214;-42
2021/03/24 10:23:47;;;;;;;16.75;13.93;;;10.60;91.70;;;;;;5030605;28;20739;-43
2021/03/24 10:26:17;;;;;;;18.13;13.30;;;10.60;91.80;;;;;;5030957;28;20686;-44
2021/03/24 10:28:51;;;;;;;45.53;28.42;;;10.70;91.70;;;;;;5031331;28;20232;-41
2021/03/24 10:31:23;;;;;;;18.27;13.93;;;10.90;91.30;;;;;;5030961;28;20250;-43
2021/03/24 10:33:55;;;;;;;15.07;12.00;;;10.90;91.00;;;;;;5030726;28;20728;-46
2021/03/24 10:36:26;;;;;;;19.65;14.15;;;10.90;91.00;;;;;;5030953;28;20208;-45
2021/03/24 10:39:03;;;;;;;19.08;14.13;;;10.90;91.00;;;;;;5031364;28;20555;-41
2021/03/24 10:41:55;;;;;;;17.42;13.20;;;10.90;90.80;;;;;;5030729;28;20232;-45
2021/03/24 10:44:39;;;;;;;16.92;13.82;;;11.00;90.50;;;;;;5031127;28;20627;-41
2021/03/24 10:47:31;;;;;;;17.25;13.45;;;11.00;90.60;;;;;;5031164;28;20291;-41
2021/03/24 10:50:21;;;;;;;18.80;13.65;;;11.10;90.60;;;;;;5030195;28;20209;-45
2021/03/24 10:53:11;;;;;;;16.00;13.07;;;11.20;90.20;;;;;;5019774;28;20232;-46
2021/03/24 10:55:42;;;;;;;18.60;13.13;;;11.20;90.00;;;;;;5031055;28;20213;-42
2021/03/24 10:58:31;;;;;;;17.48;12.68;;;11.10;90.20;;;;;;5030232;28;20690;-41
2021/03/24 11:01:07;;;;;;;16.63;12.85;;;11.20;90.10;;;;;;5031145;28;20259;-42
2021/03/24 11:03:41;;;;;;;19.85;12.82;;;11.30;90.00;;;;;;5030695;28;20238;-41
2021/03/24 11:06:12;;;;;;;16.70;12.32;;;11.50;89.70;;;;;;5030778;28;20636;-43
2021/03/24 11:08:44;;;;;;;15.50;13.00;;;11.60;88.70;;;;;;5030787;28;20283;-41
2021/03/24 11:11:18;;;;;;;18.90;12.68;;;11.50;88.00;;;;;;5030632;28;20243;-43
2021/03/24 11:13:54;;;;;;;18.58;13.00;;;11.40;88.20;;;;;;5030505;28;20332;-43
2021/03/24 11:16:27;;;;;;;16.00;12.07;;;11.40;88.70;;;;;;5030680;28;20647;-41
2021/03/24 11:19:05;;;;;;;17.13;12.25;;;11.60;88.60;;;;;;5030632;28;20299;-42
2021/03/24 11:21:43;;;;;;;15.85;12.85;;;11.70;88.00;;;;;;5030497;28;20236;-45
2021/03/24 11:24:23;;;;;;;16.90;13.15;;;11.90;88.10;;;;;;5030793;28;20252;-42
2021/03/24 11:27:22;;;;;;;16.48;13.10;;;12.00;86.70;;;;;;5030234;28;20624;-41
2021/03/24 11:30:02;;;;;;;15.73;12.45;;;12.20;85.80;;;;;;5030329;28;20251;-42
2021/03/24 11:32:44;;;;;;;14.75;13.13;;;12.20;85.60;;;;;;5030420;28;20332;-42
2021/03/24 11:35:26;;;;;;;15.13;12.27;;;12.30;85.30;;;;;;5032729;28;20353;-42
2021/03/24 11:38:00;;;;;;;15.45;12.55;;;12.30;85.20;;;;;;5033927;28;20212;-42
2021/03/24 11:40:38;;;;;;;16.33;12.95;;;12.30;85.50;;;;;;5034187;28;20683;-42
2021/03/24 11:43:09;;;;;;;13.75;10.85;;;12.40;84.70;;;;;;5037285;28;20208;-44
2021/03/24 11:45:40;;;;;;;16.83;11.27;;;12.40;85.00;;;;;;5034448;28;20246;-45
2021/03/24 11:48:38;;;;;;;16.67;11.57;;;12.40;84.30;;;;;;5033787;28;20638;-43
2021/03/24 11:51:17;;;;;;;18.30;13.25;;;12.40;83.60;;;;;;5034022;28;20219;-42
2021/03/24 11:53:57;;;;;;;15.00;11.38;;;12.40;84.10;;;;;;5034947;28;20312;-41
2021/03/24 11:56:38;;;;;;;15.48;10.77;;;12.50;83.70;;;;;;5034262;28;20299;-45
2021/03/24 11:59:18;;;;;;;12.88;10.75;;;12.60;83.20;;;;;;5034038;28;20222;-41
2021/03/24 12:01:57;;;;;;;12.25;10.15;;;12.80;82.80;;;;;;5033347;28;20216;-39
2021/03/24 12:04:59;;;;;;;15.10;11.20;;;12.80;81.70;;;;;;5033652;28;20208;-42
2021/03/24 12:07:40;;;;;;;13.43;10.50;;;12.80;81.60;;;;;;5033154;28;20247;-42
2021/03/24 12:10:28;;;;;;;11.90;10.70;;;12.80;81.80;;;;;;5033489;28;20295;-44
2021/03/24 12:13:09;;;;;;;18.05;12.80;;;12.80;81.60;;;;;;5033365;28;20233;-43
2021/03/24 12:15:39;;;;;;;15.20;10.77;;;12.80;81.00;;;;;;5033978;28;20204;-44
2021/03/24 12:18:10;;;;;;;19.20;11.90;;;12.90;81.30;;;;;;5033771;28;20213;-44
2021/03/24 12:20:53;;;;;;;19.75;11.55;;;13.00;81.00;;;;;;5033520;28;20255;-44
2021/03/24 12:23:22;;;;;;;17.08;14.60;;;13.20;79.10;;;;;;5033397;28;20209;-51
2021/03/24 12:25:52;;;;;;;15.73;11.85;;;13.20;79.70;;;;;;5033247;28;20715;-44
2021/03/24 12:28:35;;;;;;;15.68;11.85;;;13.20;80.10;;;;;;5033448;28;20303;-45
2021/03/24 12:31:18;;;;;;;13.63;11.32;;;13.20;79.30;;;;;;5033237;28;20209;-44
2021/03/24 12:33:51;;;;;;;14.80;11.48;;;13.20;79.30;;;;;;5032983;28;20295;-43
2021/03/24 12:36:22;;;;;;;14.80;10.82;;;13.20;79.40;;;;;;5033262;28;20213;-46
2021/03/24 12:38:53;;;;;;;13.30;10.55;;;13.30;79.50;;;;;;5033332;28;20209;-44
2021/03/24 12:41:33;;;;;;;12.40;11.10;;;13.30;78.90;;;;;;5033429;28;20278;-50
2021/03/24 12:44:24;;;;;;;15.23;13.68;;;13.20;78.40;;;;;;5033515;28;20268;-46
2021/03/24 12:46:57;;;;;;;14.35;9.95;;;13.30;78.70;;;;;;5032875;28;20219;-48
2021/03/24 12:49:27;;;;;;;13.95;11.55;;;13.30;78.30;;;;;;5034352;28;20236;-46
2021/03/24 12:52:12;;;;;;;15.32;10.95;;;13.40;78.20;;;;;;5033186;28;20240;-44
2021/03/24 12:54:39;;;;;;;12.10;10.50;;;13.60;77.20;;;;;;5033210;28;20213;-45
2021/03/24 12:57:33;;;;;;;11.95;10.40;;;13.70;76.70;;;;;;5033019;28;20212;-44
2021/03/24 13:00:32;;;;;;;9.48;8.07;;;13.80;75.40;;;;;;5032660;28;20215;-48
2021/03/24 13:03:35;;;;;;;14.05;9.82;;;13.90;74.80;;;;;;5029369;28;20274;-45
2021/03/24 13:06:18;;;;;;;22.75;9.85;;;13.90;74.10;;;;;;5032145;28;20678;-45
2021/03/24 13:08:57;;;;;;;14.50;9.90;;;13.90;74.00;;;;;;5032324;28;20240;-46
2021/03/24 13:11:35;;;;;;;14.15;10.60;;;14.00;74.20;;;;;;5032327;28;20208;-45
2021/03/24 13:14:22;;;;;;;14.63;10.75;;;14.00;74.10;;;;;;5032516;28;20315;-44
2021/03/24 13:16:58;;;;;;;13.27;9.70;;;14.00;73.90;;;;;;5032464;28;20205;-41
2021/03/24 13:19:32;;;;;;;12.00;9.88;;;14.00;73.60;;;;;;5032373;28;20266;-42
2021/03/24 13:22:04;;;;;;;13.95;9.77;;;14.00;74.40;;;;;;5032275;28;20274;-43
2021/03/24 13:25:15;;;;;;;17.02;12.27;;;14.00;74.60;;;;;;5032174;28;20592;-42
2021/03/24 13:28:06;;;;;;;46.70;41.72;;;14.10;73.80;;;;;;5028327;28;20699;-44
2021/03/24 13:30:40;;;;;;;15.05;11.50;;;14.20;74.50;;;;;;5032001;28;20813;-43